createdAt,value
2018-04-26T00:00:26.133Z,1.90
2018-04-26T00:02:19.705Z,1.60
2018-04-26T00:03:19.704Z,1.50
2018-04-26T00:05:13.252Z,2.20
2018-04-26T00:06:13.269Z,1.80
2018-04-26T00:08:06.841Z,2.00
2018-04-26T00:09:06.845Z,1.60
2018-04-26T00:11:00.393Z,1.90
2018-04-26T00:12:00.417Z,2.10
2018-04-26T00:13:53.973Z,2.10
2018-04-26T00:14:53.988Z,2.30
2018-04-26T00:16:47.538Z,1.80
2018-04-26T00:17:47.561Z,1.80
2018-04-26T00:19:52.767Z,1.90
2018-04-26T00:20:52.782Z,1.80
2018-04-26T00:22:46.331Z,1.90
2018-04-26T00:23:46.354Z,1.90
2018-04-26T00:25:39.904Z,1.70
2018-04-26T00:26:39.923Z,1.80
2018-04-26T00:28:33.472Z,1.80
2018-04-26T00:29:33.493Z,1.80
2018-04-26T00:31:27.045Z,1.70
2018-04-26T00:32:27.064Z,1.50
2018-04-26T00:34:20.612Z,1.80
2018-04-26T00:35:20.636Z,1.80
2018-04-26T00:37:14.190Z,1.90
2018-04-26T00:38:14.204Z,1.80
2018-04-26T00:40:07.754Z,1.70
2018-04-26T00:41:07.774Z,1.50
2018-04-26T00:43:01.326Z,1.80
2018-04-26T00:44:01.346Z,1.90
2018-04-26T00:45:01.381Z,1.80
2018-04-26T00:46:01.417Z,1.70
2018-04-26T00:47:01.448Z,1.80
2018-04-26T00:48:01.557Z,1.70
2018-04-26T00:49:01.518Z,1.90
2018-04-26T00:50:01.554Z,1.60
2018-04-26T00:51:01.589Z,1.90
2018-04-26T00:52:01.621Z,1.80
2018-04-26T00:53:01.654Z,1.80
2018-04-26T00:54:01.690Z,1.60
2018-04-26T00:55:01.724Z,1.70
2018-04-26T00:56:01.758Z,1.70
2018-04-26T00:57:01.792Z,1.60
2018-04-26T00:58:01.824Z,1.70
2018-04-26T00:59:01.860Z,1.60
2018-04-26T01:00:01.898Z,1.90
2018-04-26T01:01:01.927Z,1.60
2018-04-26T01:02:01.969Z,2.00
2018-04-26T01:03:01.996Z,1.70
2018-04-26T01:04:02.029Z,1.60
2018-04-26T01:05:02.064Z,1.80
2018-04-26T01:06:02.099Z,1.60
2018-04-26T01:07:02.133Z,1.80
2018-04-26T01:08:02.166Z,1.60
2018-04-26T01:09:02.201Z,1.80
2018-04-26T01:10:02.237Z,1.70
2018-04-26T01:11:02.261Z,1.50
2018-04-26T01:12:02.303Z,1.50
2018-04-26T01:13:02.339Z,1.90
2018-04-26T01:14:02.373Z,1.80
2018-04-26T01:15:02.405Z,1.60
2018-04-26T01:16:02.440Z,1.60
2018-04-26T01:17:02.535Z,1.70
2018-04-26T01:18:02.507Z,1.50
2018-04-26T01:19:02.542Z,1.60
2018-04-26T01:20:02.663Z,1.60
2018-04-26T01:21:02.611Z,1.70
2018-04-26T01:22:02.648Z,1.60
2018-04-26T01:23:02.686Z,1.70
2018-04-26T01:24:02.712Z,1.70
2018-04-26T01:25:02.747Z,1.80
2018-04-26T01:26:02.786Z,1.60
2018-04-26T01:27:02.814Z,1.80
2018-04-26T01:28:02.850Z,1.80
2018-04-26T01:29:02.884Z,1.70
2018-04-26T01:30:02.919Z,1.70
2018-04-26T01:31:02.953Z,1.80
2018-04-26T01:32:02.988Z,1.70
2018-04-26T01:33:03.028Z,1.60
2018-04-26T01:34:03.055Z,1.60
2018-04-26T01:35:03.090Z,1.70
2018-04-26T01:36:03.122Z,1.70
2018-04-26T01:37:03.157Z,1.60
2018-04-26T01:38:03.191Z,1.80
2018-04-26T01:39:03.225Z,1.50
2018-04-26T01:40:03.259Z,1.60
2018-04-26T01:41:03.293Z,1.40
2018-04-26T01:42:03.328Z,1.70
2018-04-26T01:43:03.362Z,1.60
2018-04-26T01:44:03.394Z,1.60
2018-04-26T01:45:03.446Z,1.70
2018-04-26T01:46:03.465Z,1.60
2018-04-26T01:47:03.498Z,1.50
2018-04-26T01:48:03.532Z,1.80
2018-04-26T01:49:03.567Z,1.70
2018-04-26T01:50:03.601Z,1.70
2018-04-26T01:51:03.634Z,1.50
2018-04-26T01:52:03.668Z,1.50
2018-04-26T01:53:03.702Z,1.60
2018-04-26T01:54:03.738Z,1.70
2018-04-26T01:55:03.770Z,1.50
2018-04-26T01:56:03.804Z,1.60
2018-04-26T01:57:03.845Z,1.60
2018-04-26T01:58:03.873Z,1.70
2018-04-26T01:59:03.906Z,1.50
2018-04-26T02:00:03.941Z,1.80
2018-04-26T02:01:03.977Z,1.50
2018-04-26T02:02:04.010Z,1.80
2018-04-26T02:03:04.054Z,1.50
2018-04-26T02:04:04.076Z,1.40
2018-04-26T02:05:04.114Z,1.50
2018-04-26T02:06:04.145Z,1.50
2018-04-26T02:07:04.180Z,1.50
2018-04-26T02:08:04.213Z,1.50
2018-04-26T02:09:04.250Z,1.50
2018-04-26T02:10:04.282Z,1.70
2018-04-26T02:11:04.315Z,1.60
2018-04-26T02:12:04.350Z,1.70
2018-04-26T02:13:04.384Z,1.50
2018-04-26T02:14:04.417Z,1.50
2018-04-26T02:15:04.453Z,1.70
2018-04-26T02:16:04.487Z,1.60
2018-04-26T02:17:04.532Z,1.40
2018-04-26T02:18:04.563Z,1.50
2018-04-26T02:19:04.595Z,1.80
2018-04-26T02:20:04.635Z,1.50
2018-04-26T02:21:04.664Z,1.50
2018-04-26T02:22:04.704Z,1.50
2018-04-26T02:23:04.737Z,1.60
2018-04-26T02:24:04.767Z,1.50
2018-04-26T02:25:04.804Z,1.60
2018-04-26T02:26:04.836Z,1.70
2018-04-26T02:27:04.868Z,1.50
2018-04-26T02:28:04.902Z,1.60
2018-04-26T02:29:04.941Z,1.50
2018-04-26T02:30:04.975Z,1.50
2018-04-26T02:31:05.008Z,1.60
2018-04-26T02:32:05.040Z,1.60
2018-04-26T02:33:05.073Z,1.60
2018-04-26T02:34:05.114Z,1.60
2018-04-26T02:35:05.141Z,1.60
2018-04-26T02:36:05.180Z,1.70
2018-04-26T02:37:05.210Z,1.60
2018-04-26T02:38:05.249Z,1.70
2018-04-26T02:39:05.278Z,1.80
2018-04-26T02:40:05.326Z,1.60
2018-04-26T02:41:05.349Z,1.70
2018-04-26T02:42:05.382Z,1.70
2018-04-26T02:43:05.410Z,1.50
2018-04-26T02:44:05.451Z,1.60
2018-04-26T02:45:05.482Z,1.80
2018-04-26T02:46:05.523Z,1.80
2018-04-26T02:47:05.550Z,1.60
2018-04-26T02:48:05.590Z,1.60
2018-04-26T02:49:05.617Z,1.50
2018-04-26T02:50:05.652Z,1.40
2018-04-26T02:51:05.691Z,1.40
2018-04-26T02:52:05.730Z,1.60
2018-04-26T02:53:05.757Z,1.60
2018-04-26T02:54:05.787Z,1.60
2018-04-26T02:55:05.824Z,1.60
2018-04-26T02:56:05.872Z,1.70
2018-04-26T02:57:05.889Z,1.40
2018-04-26T02:58:05.925Z,1.50
2018-04-26T02:59:05.956Z,1.70
2018-04-26T03:00:05.992Z,1.50
2018-04-26T03:01:06.028Z,1.70
2018-04-26T03:02:06.058Z,1.40
2018-04-26T03:03:06.100Z,1.50
2018-04-26T03:04:06.128Z,1.60
2018-04-26T03:05:06.166Z,1.70
2018-04-26T03:06:06.201Z,1.60
2018-04-26T03:07:06.229Z,1.60
2018-04-26T03:08:06.262Z,1.70
2018-04-26T03:09:06.297Z,1.60
2018-04-26T03:10:06.332Z,1.70
2018-04-26T03:11:06.372Z,1.50
2018-04-26T03:14:32.134Z,1.60
2018-04-26T03:15:32.144Z,1.50
2018-04-26T03:17:25.693Z,1.60
2018-04-26T03:18:25.716Z,1.60
2018-04-26T03:20:19.261Z,1.60
2018-04-26T03:21:19.283Z,1.60
2018-04-26T03:23:12.830Z,1.60
2018-04-26T03:24:12.855Z,1.40
2018-04-26T03:26:06.403Z,1.60
2018-04-26T03:27:06.430Z,1.40
2018-04-26T03:28:59.976Z,1.50
2018-04-26T03:29:59.999Z,1.60
2018-04-26T03:31:53.543Z,1.40
2018-04-26T03:32:53.573Z,1.50
2018-04-26T03:34:47.114Z,1.50
2018-04-26T03:35:47.137Z,1.50
2018-04-26T03:37:40.688Z,1.80
2018-04-26T03:38:40.705Z,1.80
2018-04-26T03:40:34.256Z,1.70
2018-04-26T03:41:34.282Z,1.80
2018-04-26T03:43:27.825Z,1.60
2018-04-26T03:44:27.848Z,1.60
2018-04-26T03:46:21.397Z,1.60
2018-04-26T03:47:21.420Z,1.50
2018-04-26T03:49:14.460Z,1.60
2018-04-26T03:50:14.477Z,1.80
2018-04-26T03:52:08.026Z,1.60
2018-04-26T03:53:08.049Z,1.70
2018-04-26T03:55:01.598Z,1.60
2018-04-26T03:56:01.616Z,1.70
2018-04-26T03:57:55.166Z,1.80
2018-04-26T03:58:55.187Z,1.70
2018-04-26T04:00:48.740Z,1.60
2018-04-26T04:01:48.762Z,1.60
2018-04-26T04:03:42.307Z,1.70
2018-04-26T04:04:42.333Z,1.60
2018-04-26T04:06:35.877Z,1.80
2018-04-26T04:07:35.898Z,1.70
2018-04-26T04:09:29.448Z,1.70
2018-04-26T04:10:29.474Z,1.70
2018-04-26T04:12:23.019Z,1.40
2018-04-26T04:13:23.040Z,1.70
2018-04-26T04:15:16.589Z,1.80
2018-04-26T04:16:16.615Z,1.70
2018-04-26T04:18:10.163Z,1.60
2018-04-26T04:19:10.191Z,1.70
2018-04-26T04:21:03.730Z,1.60
2018-04-26T04:22:03.751Z,2.00
2018-04-26T04:23:03.785Z,1.70
2018-04-26T04:24:03.824Z,1.80
2018-04-26T04:25:03.857Z,1.60
2018-04-26T04:26:03.889Z,1.90
2018-04-26T04:27:03.920Z,1.60
2018-04-26T04:28:03.987Z,1.70
2018-04-26T04:29:03.990Z,1.50
2018-04-26T04:30:04.023Z,1.80
2018-04-26T04:31:04.060Z,2.00
2018-04-26T04:32:04.091Z,1.50
2018-04-26T04:33:04.123Z,1.40
2018-04-26T04:34:04.158Z,1.70
2018-04-26T04:35:04.193Z,1.70
2018-04-26T04:36:04.263Z,1.50
2018-04-26T04:37:04.261Z,1.80
2018-04-26T04:38:04.294Z,1.80
2018-04-26T04:39:04.327Z,1.70
2018-04-26T04:40:04.367Z,1.50
2018-04-26T04:41:04.397Z,1.80
2018-04-26T04:42:04.427Z,1.60
2018-04-26T04:43:04.469Z,1.50
2018-04-26T04:44:04.502Z,1.60
2018-04-26T04:45:04.542Z,1.60
2018-04-26T04:46:04.568Z,1.80
2018-04-26T04:47:04.597Z,2.00
2018-04-26T04:48:04.660Z,1.60
2018-04-26T04:49:04.667Z,1.70
2018-04-26T04:50:04.701Z,1.70
2018-04-26T04:51:04.734Z,1.60
2018-04-26T04:52:04.769Z,1.70
2018-04-26T04:53:04.804Z,1.60
2018-04-26T04:54:04.836Z,1.70
2018-04-26T04:55:04.873Z,1.80
2018-04-26T04:56:58.355Z,1.70
2018-04-26T04:57:58.379Z,1.60
2018-04-26T04:59:51.928Z,1.60
2018-04-26T05:00:51.954Z,1.70
2018-04-26T05:02:45.502Z,1.60
2018-04-26T05:03:45.523Z,1.60
2018-04-26T05:05:39.071Z,1.50
2018-04-26T05:06:39.091Z,1.50
2018-04-26T05:08:32.653Z,1.80
2018-04-26T05:09:32.669Z,1.80
2018-04-26T05:11:26.213Z,2.00
2018-04-26T05:12:26.233Z,1.80
2018-04-26T05:14:19.794Z,1.70
2018-04-26T05:15:19.806Z,2.00
2018-04-26T05:17:13.354Z,1.70
2018-04-26T05:18:13.379Z,1.80
2018-04-26T05:19:13.408Z,1.60
2018-04-26T05:20:13.442Z,2.20
2018-04-26T05:21:13.476Z,1.80
2018-04-26T05:22:13.514Z,1.70
2018-04-26T05:23:13.545Z,1.70
2018-04-26T05:24:13.578Z,1.70
2018-04-26T05:25:13.619Z,2.00
2018-04-26T05:26:13.650Z,1.90
2018-04-26T05:27:13.681Z,1.70
2018-04-26T05:28:13.715Z,2.00
2018-04-26T05:29:13.748Z,1.80
2018-04-26T05:30:13.786Z,1.70
2018-04-26T05:31:13.818Z,1.70
2018-04-26T05:32:13.851Z,2.00
2018-04-26T05:33:13.889Z,1.90
2018-04-26T05:34:13.918Z,1.90
2018-04-26T05:35:13.950Z,2.00
2018-04-26T05:36:13.987Z,1.80
2018-04-26T05:37:14.016Z,1.70
2018-04-26T05:38:14.049Z,1.60
2018-04-26T05:39:14.094Z,1.80
2018-04-26T05:40:14.118Z,1.90
2018-04-26T05:41:14.156Z,2.00
2018-04-26T05:43:07.701Z,1.60
2018-04-26T05:44:07.725Z,1.70
2018-04-26T05:46:01.278Z,1.60
2018-04-26T05:47:01.300Z,1.80
2018-04-26T05:48:54.847Z,1.90
2018-04-26T05:49:54.865Z,1.90
2018-04-26T05:51:48.414Z,1.70
2018-04-26T05:52:48.433Z,2.20
2018-04-26T05:54:41.992Z,2.00
2018-04-26T05:55:42.019Z,1.70
2018-04-26T05:57:35.558Z,1.90
2018-04-26T05:58:35.582Z,2.10
2018-04-26T06:00:29.124Z,2.50
2018-04-26T06:01:29.154Z,2.20
2018-04-26T06:03:22.698Z,2.30
2018-04-26T06:04:22.720Z,2.50
2018-04-26T06:06:16.266Z,2.40
2018-04-26T06:07:16.289Z,2.20
2018-04-26T06:09:09.837Z,2.00
2018-04-26T06:10:09.864Z,2.10
2018-04-26T06:12:03.413Z,2.10
2018-04-26T06:13:03.435Z,2.20
2018-04-26T06:14:03.461Z,2.20
2018-04-26T06:15:03.497Z,2.10
2018-04-26T06:16:03.531Z,2.30
2018-04-26T06:17:03.572Z,2.20
2018-04-26T06:18:03.601Z,2.10
2018-04-26T06:19:03.634Z,2.00
2018-04-26T06:20:03.671Z,2.00
2018-04-26T06:21:03.702Z,2.10
2018-04-26T06:22:04.348Z,2.00
2018-04-26T06:23:03.772Z,2.20
2018-04-26T06:24:57.263Z,2.20
2018-04-26T06:25:57.286Z,2.60
2018-04-26T06:27:50.828Z,2.40
2018-04-26T06:28:50.853Z,2.10
2018-04-26T06:30:44.400Z,2.30
2018-04-26T06:31:44.418Z,2.60
2018-04-26T06:33:37.973Z,2.40
2018-04-26T06:34:37.989Z,2.50
2018-04-26T06:36:31.537Z,2.40
2018-04-26T06:37:31.561Z,2.20
2018-04-26T06:39:25.151Z,7.80
2018-04-26T06:40:25.131Z,3.80
2018-04-26T06:42:18.758Z,45.60
2018-04-26T06:43:18.699Z,38.70
2018-04-26T06:45:12.252Z,38.50
2018-04-26T06:46:12.270Z,34.00
2018-04-26T06:48:05.823Z,27.20
2018-04-26T06:49:05.844Z,26.80
2018-04-26T06:50:59.393Z,25.70
2018-04-26T06:51:59.414Z,23.50
2018-04-26T06:53:52.960Z,23.00
2018-04-26T06:54:52.982Z,21.70
2018-04-26T06:56:46.019Z,19.50
2018-04-26T06:57:46.041Z,19.00
2018-04-26T06:59:39.590Z,16.30
2018-04-26T07:00:39.622Z,17.80
2018-04-26T07:02:32.646Z,16.10
2018-04-26T07:03:32.674Z,14.30
2018-04-26T07:05:26.680Z,13.30
2018-04-26T07:06:26.243Z,13.00
2018-04-26T07:08:19.789Z,12.50
2018-04-26T07:09:19.811Z,11.70
2018-04-26T07:11:13.359Z,11.90
2018-04-26T07:12:13.380Z,10.50
2018-04-26T07:14:06.931Z,10.30
2018-04-26T07:15:06.952Z,10.90
2018-04-26T07:17:00.499Z,9.50
2018-04-26T07:18:00.522Z,9.30
2018-04-26T07:19:54.071Z,8.70
2018-04-26T07:20:54.092Z,9.30
2018-04-26T07:22:47.644Z,7.60
2018-04-26T07:23:47.665Z,7.90
2018-04-26T07:25:41.215Z,7.60
2018-04-26T07:26:41.231Z,7.50
2018-04-26T07:28:34.269Z,7.10
2018-04-26T07:29:34.296Z,7.00
2018-04-26T07:31:27.843Z,6.00
2018-04-26T07:32:27.860Z,6.50
2018-04-26T07:34:21.337Z,6.60
2018-04-26T07:35:21.365Z,6.50
2018-04-26T07:37:14.840Z,5.90
2018-04-26T07:38:14.858Z,6.30
2018-04-26T07:40:08.343Z,5.60
2018-04-26T07:41:08.358Z,6.00
2018-04-26T07:43:01.341Z,5.10
2018-04-26T07:44:01.367Z,5.50
2018-04-26T07:45:54.838Z,4.60
2018-04-26T07:46:54.863Z,5.20
2018-04-26T07:48:48.345Z,5.10
2018-04-26T07:49:48.364Z,4.80
2018-04-26T07:51:41.840Z,4.60
2018-04-26T07:52:41.859Z,4.70
2018-04-26T07:54:34.846Z,4.30
2018-04-26T07:55:34.867Z,4.80
2018-04-26T07:57:28.341Z,4.50
2018-04-26T07:58:28.365Z,4.10
2018-04-26T08:00:21.842Z,4.30
2018-04-26T08:01:21.863Z,4.10
2018-04-26T08:03:15.342Z,3.90
2018-04-26T08:04:15.361Z,4.00
2018-04-26T08:06:08.853Z,3.60
2018-04-26T08:07:08.942Z,3.90
2018-04-26T08:09:01.852Z,3.80
2018-04-26T08:10:01.873Z,3.70
2018-04-26T08:11:55.350Z,3.80
2018-04-26T08:12:55.370Z,3.40
2018-04-26T08:14:48.855Z,3.30
2018-04-26T08:15:48.870Z,3.70
2018-04-26T08:17:42.350Z,3.20
2018-04-26T08:18:42.368Z,3.60
2018-04-26T08:20:35.849Z,3.30
2018-04-26T08:21:35.871Z,3.50
2018-04-26T08:23:29.374Z,3.60
2018-04-26T08:24:29.364Z,3.40
2018-04-26T08:26:22.847Z,3.50
2018-04-26T08:27:22.866Z,3.80
2018-04-26T08:29:16.341Z,3.40
2018-04-26T08:30:16.364Z,3.10
2018-04-26T08:32:09.840Z,3.30
2018-04-26T08:33:09.857Z,3.50
2018-04-26T08:35:03.338Z,3.30
2018-04-26T08:36:03.356Z,3.40
2018-04-26T08:37:56.355Z,3.60
2018-04-26T08:38:56.375Z,3.20
2018-04-26T08:40:49.861Z,3.10
2018-04-26T08:41:49.882Z,3.50
2018-04-26T08:43:43.354Z,3.30
2018-04-26T08:44:43.375Z,3.00
2018-04-26T08:46:36.849Z,3.20
2018-04-26T08:47:36.875Z,3.80
2018-04-26T08:49:30.349Z,2.90
2018-04-26T08:50:30.371Z,3.10
2018-04-26T08:52:23.422Z,3.40
2018-04-26T08:53:23.383Z,3.60
2018-04-26T08:55:16.856Z,3.10
2018-04-26T08:56:16.878Z,3.10
2018-04-26T08:58:10.355Z,3.30
2018-04-26T08:59:10.378Z,3.30
2018-04-26T09:01:03.850Z,3.00
2018-04-26T09:02:03.871Z,3.20
2018-04-26T09:03:57.347Z,3.00
2018-04-26T09:04:57.373Z,3.10
2018-04-26T09:06:50.923Z,3.30
2018-04-26T09:07:50.858Z,3.40
2018-04-26T09:09:44.326Z,3.30
2018-04-26T09:10:44.348Z,3.20
2018-04-26T09:12:37.810Z,3.00
2018-04-26T09:13:37.836Z,2.90
2018-04-26T09:15:31.319Z,3.10
2018-04-26T09:16:31.345Z,3.10
2018-04-26T09:18:24.815Z,3.30
2018-04-26T09:19:24.834Z,2.90
2018-04-26T09:21:18.315Z,3.00
2018-04-26T09:22:18.334Z,3.10
2018-04-26T09:23:18.366Z,2.90
2018-04-26T09:24:18.400Z,3.10
2018-04-26T09:25:18.434Z,3.10
2018-04-26T09:26:18.472Z,3.10
2018-04-26T09:27:18.510Z,2.90
2018-04-26T09:28:18.534Z,3.00
2018-04-26T09:29:18.569Z,3.00
2018-04-26T09:30:18.605Z,3.00
2018-04-26T09:31:18.634Z,2.90
2018-04-26T09:32:18.673Z,2.80
2018-04-26T09:33:18.702Z,3.10
2018-04-26T09:34:18.735Z,3.00
2018-04-26T09:35:18.769Z,3.10
2018-04-26T09:36:18.807Z,3.10
2018-04-26T09:37:18.841Z,2.90
2018-04-26T09:38:18.872Z,3.30
2018-04-26T09:39:18.908Z,2.90
2018-04-26T09:40:18.939Z,3.00
2018-04-26T09:41:18.971Z,2.90
2018-04-26T09:42:19.009Z,3.00
2018-04-26T09:43:19.045Z,3.20
2018-04-26T09:44:19.070Z,3.10
2018-04-26T09:45:19.109Z,2.90
2018-04-26T09:46:19.141Z,2.80
2018-04-26T09:47:19.171Z,2.70
2018-04-26T09:48:19.206Z,2.90
2018-04-26T09:49:19.237Z,3.00
2018-04-26T09:50:19.272Z,3.00
2018-04-26T09:51:19.306Z,3.10
2018-04-26T09:52:19.342Z,3.00
2018-04-26T09:53:19.376Z,2.90
2018-04-26T09:54:19.408Z,2.90
2018-04-26T09:55:19.438Z,2.70
2018-04-26T09:56:19.475Z,2.90
2018-04-26T09:57:19.509Z,2.70
2018-04-26T09:58:19.588Z,3.30
2018-04-26T09:59:19.576Z,2.80
2018-04-26T10:00:19.611Z,2.90
2018-04-26T10:01:19.641Z,3.10
2018-04-26T10:02:19.672Z,3.00
2018-04-26T10:03:19.709Z,2.90
2018-04-26T10:04:19.738Z,3.00
2018-04-26T10:05:19.775Z,2.80
2018-04-26T10:06:19.805Z,3.00
2018-04-26T10:07:19.839Z,2.80
2018-04-26T10:08:19.874Z,3.10
2018-04-26T10:09:19.913Z,2.90
2018-04-26T10:10:19.939Z,2.80
2018-04-26T10:11:19.971Z,3.00
2018-04-26T10:12:20.008Z,2.60
2018-04-26T10:13:20.050Z,2.90
2018-04-26T10:14:20.072Z,2.80
2018-04-26T10:15:20.104Z,2.80
2018-04-26T10:16:20.142Z,2.70
2018-04-26T10:17:20.173Z,2.70
2018-04-26T10:18:20.205Z,2.70
2018-04-26T10:19:20.243Z,2.80
2018-04-26T10:20:20.271Z,2.90
2018-04-26T10:21:20.310Z,2.80
2018-04-26T10:22:20.338Z,2.80
2018-04-26T10:23:20.373Z,2.80
2018-04-26T10:24:20.405Z,2.60
2018-04-26T10:25:20.437Z,2.40
2018-04-26T10:26:20.472Z,3.00
2018-04-26T10:27:20.508Z,2.90
2018-04-26T10:28:20.542Z,2.40
2018-04-26T10:29:20.571Z,2.50
2018-04-26T10:30:20.605Z,3.00
2018-04-26T10:31:20.638Z,2.70
2018-04-26T10:33:25.778Z,2.70
2018-04-26T10:34:25.799Z,2.70
2018-04-26T10:36:19.276Z,2.80
2018-04-26T10:37:19.296Z,2.60
2018-04-26T10:39:12.768Z,2.80
2018-04-26T10:40:12.794Z,2.50
2018-04-26T10:42:06.269Z,2.60
2018-04-26T10:43:06.293Z,2.80
2018-04-26T10:44:59.758Z,2.60
2018-04-26T10:45:59.777Z,2.70
2018-04-26T10:47:53.259Z,2.50
2018-04-26T10:48:53.278Z,2.70
2018-04-26T10:50:46.755Z,2.70
2018-04-26T10:51:46.777Z,2.80
2018-04-26T10:53:40.249Z,2.80
2018-04-26T10:54:40.271Z,2.80
2018-04-26T10:56:33.260Z,2.70
2018-04-26T10:57:33.279Z,2.60
2018-04-26T10:59:26.758Z,2.60
2018-04-26T11:00:26.777Z,2.80
2018-04-26T11:02:20.251Z,2.90
2018-04-26T11:03:20.272Z,2.70
2018-04-26T11:05:13.753Z,2.70
2018-04-26T11:06:13.772Z,2.80
2018-04-26T11:08:07.250Z,2.60
2018-04-26T11:09:07.291Z,2.70
2018-04-26T11:11:00.745Z,2.50
2018-04-26T11:12:01.749Z,2.70
2018-04-26T11:13:54.231Z,2.50
2018-04-26T11:14:54.261Z,2.60
2018-04-26T11:16:47.721Z,2.80
2018-04-26T11:17:47.740Z,2.70
2018-04-26T11:19:41.225Z,2.70
2018-04-26T11:20:41.245Z,2.80
2018-04-26T11:22:34.719Z,2.60
2018-04-26T11:23:34.742Z,2.60
2018-04-26T11:25:28.220Z,2.80
2018-04-26T11:26:28.241Z,2.60
2018-04-26T11:28:21.735Z,2.80
2018-04-26T11:29:21.745Z,2.80
2018-04-26T11:31:15.212Z,2.60
2018-04-26T11:32:15.233Z,2.60
2018-04-26T11:34:08.702Z,2.70
2018-04-26T11:35:08.727Z,2.70
2018-04-26T11:37:02.211Z,2.60
2018-04-26T11:38:02.216Z,2.60
2018-04-26T11:39:55.691Z,2.60
2018-04-26T11:40:55.719Z,2.80
2018-04-26T11:41:55.751Z,2.70
2018-04-26T11:42:55.780Z,2.60
2018-04-26T11:43:55.822Z,2.70
2018-04-26T11:44:55.853Z,2.80
2018-04-26T11:45:55.880Z,2.60
2018-04-26T11:46:55.917Z,2.70
2018-04-26T11:47:55.948Z,2.60
2018-04-26T11:48:55.981Z,2.50
2018-04-26T11:49:56.016Z,2.80
2018-04-26T11:50:56.046Z,2.80
2018-04-26T11:51:56.081Z,2.40
2018-04-26T11:52:56.114Z,2.50
2018-04-26T11:53:56.151Z,2.70
2018-04-26T11:54:56.705Z,2.50
2018-04-26T11:55:56.216Z,2.50
2018-04-26T11:57:49.721Z,2.40
2018-04-26T11:58:49.706Z,2.80
2018-04-26T12:00:43.713Z,2.50
2018-04-26T12:01:43.203Z,2.80
2018-04-26T12:03:36.680Z,2.60
2018-04-26T12:04:36.698Z,2.70
2018-04-26T12:06:30.176Z,2.50
2018-04-26T12:07:30.203Z,2.80
2018-04-26T12:09:23.676Z,2.20
2018-04-26T12:10:23.694Z,2.50
2018-04-26T12:12:16.685Z,2.50
2018-04-26T12:13:16.732Z,2.50
2018-04-26T12:15:10.176Z,2.40
2018-04-26T12:16:10.191Z,2.70
2018-04-26T12:18:03.675Z,2.40
2018-04-26T12:19:03.699Z,2.40
2018-04-26T12:22:29.319Z,2.60
2018-04-26T12:23:29.352Z,2.30
2018-04-26T12:25:22.823Z,2.30
2018-04-26T12:26:22.842Z,2.70
2018-04-26T12:28:16.315Z,2.60
2018-04-26T12:29:16.432Z,2.70
2018-04-26T12:31:09.830Z,2.50
2018-04-26T12:32:09.861Z,2.60
2018-04-26T12:34:03.361Z,2.80
2018-04-26T12:35:03.355Z,2.60
2018-04-26T12:36:56.861Z,2.60
2018-04-26T12:37:56.838Z,2.80
2018-04-26T12:39:50.342Z,2.50
2018-04-26T12:40:50.334Z,2.70
2018-04-26T12:42:43.809Z,2.70
2018-04-26T12:43:43.830Z,2.50
2018-04-26T12:45:37.310Z,2.70
2018-04-26T12:46:37.401Z,2.90
2018-04-26T12:47:37.364Z,2.70
2018-04-26T12:48:37.394Z,2.80
2018-04-26T12:49:37.425Z,2.60
2018-04-26T12:50:37.467Z,2.70
2018-04-26T12:51:37.497Z,2.70
2018-04-26T12:52:37.538Z,2.80
2018-04-26T12:53:37.614Z,2.60
2018-04-26T12:54:37.641Z,2.80
2018-04-26T12:55:37.679Z,2.80
2018-04-26T12:56:37.666Z,2.70
2018-04-26T12:57:37.732Z,2.80
2018-04-26T12:58:37.727Z,2.60
2018-04-26T12:59:37.760Z,2.30
2018-04-26T13:00:37.796Z,2.50
2018-04-26T13:01:37.826Z,2.60
2018-04-26T13:02:37.860Z,2.40
2018-04-26T13:03:37.895Z,2.70
2018-04-26T13:04:37.950Z,2.70
2018-04-26T13:05:37.963Z,2.80
2018-04-26T13:06:38.001Z,2.60
2018-04-26T13:07:38.041Z,2.50
2018-04-26T13:08:38.059Z,2.70
2018-04-26T13:09:38.093Z,2.90
2018-04-26T13:10:38.127Z,2.80
2018-04-26T13:11:38.160Z,2.90
2018-04-26T13:12:38.248Z,3.10
2018-04-26T13:13:38.226Z,2.90
2018-04-26T13:14:38.278Z,3.30
2018-04-26T13:15:38.307Z,3.10
2018-04-26T13:16:38.327Z,3.10
2018-04-26T13:17:38.394Z,3.40
2018-04-26T13:18:38.429Z,3.40
2018-04-26T13:19:38.455Z,3.40
2018-04-26T13:20:38.496Z,3.70
2018-04-26T13:21:38.548Z,3.90
2018-04-26T13:22:38.574Z,3.80
2018-04-26T13:23:38.601Z,3.90
2018-04-26T13:24:38.603Z,4.10
2018-04-26T13:25:38.659Z,4.10
2018-04-26T13:26:38.662Z,4.30
2018-04-26T13:27:38.693Z,4.30
2018-04-26T13:28:38.726Z,4.50
2018-04-26T13:29:38.757Z,4.40
2018-04-26T13:30:38.790Z,4.30
2018-04-26T13:31:38.825Z,4.50
2018-04-26T13:32:38.893Z,4.30
2018-04-26T13:33:38.898Z,4.20
2018-04-26T13:34:38.924Z,4.20
2018-04-26T13:35:39.010Z,4.10
2018-04-26T13:36:38.989Z,4.50
2018-04-26T13:37:39.069Z,4.20
2018-04-26T13:38:39.105Z,4.60
2018-04-26T13:39:39.150Z,4.60
2018-04-26T13:40:39.169Z,4.10
2018-04-26T13:41:39.185Z,4.40
2018-04-26T13:42:39.197Z,4.40
2018-04-26T13:43:39.227Z,4.50
2018-04-26T13:44:39.256Z,4.10
2018-04-26T13:45:39.289Z,4.10
2018-04-26T13:46:39.331Z,4.20
2018-04-26T13:47:39.366Z,4.00
2018-04-26T13:48:39.389Z,4.30
2018-04-26T13:49:39.426Z,4.30
2018-04-26T13:50:39.457Z,4.20
2018-04-26T13:51:39.490Z,4.20
2018-04-26T13:52:39.522Z,4.40
2018-04-26T13:53:39.562Z,4.00
2018-04-26T13:54:39.590Z,3.90
2018-04-26T13:55:39.627Z,4.00
2018-04-26T13:56:39.657Z,4.10
2018-04-26T13:57:39.696Z,3.80
2018-04-26T13:58:39.729Z,3.90
2018-04-26T13:59:39.757Z,3.60
2018-04-26T14:00:40.459Z,3.50
2018-04-26T14:01:39.823Z,4.10
2018-04-26T14:05:05.441Z,3.90
2018-04-26T14:06:05.461Z,3.70
2018-04-26T14:07:58.931Z,3.40
2018-04-26T14:08:59.026Z,3.50
2018-04-26T14:10:52.450Z,3.30
2018-04-26T14:11:52.447Z,3.60
2018-04-26T14:13:45.450Z,3.30
2018-04-26T14:14:45.446Z,3.30
2018-04-26T14:16:38.936Z,3.60
2018-04-26T14:17:38.993Z,3.60
2018-04-26T14:19:31.961Z,3.10
2018-04-26T14:20:31.974Z,3.30
2018-04-26T14:22:25.451Z,3.20
2018-04-26T14:23:25.469Z,3.20
2018-04-26T14:25:19.477Z,3.30
2018-04-26T14:26:18.971Z,3.40
2018-04-26T14:28:12.449Z,3.20
2018-04-26T14:29:12.471Z,3.10
2018-04-26T14:31:05.945Z,3.00
2018-04-26T14:32:05.969Z,3.10
2018-04-26T14:33:58.955Z,2.70
2018-04-26T14:34:58.969Z,3.10
2018-04-26T14:36:52.067Z,3.10
2018-04-26T14:37:51.994Z,2.90
2018-04-26T14:39:47.100Z,3.30
2018-04-26T14:40:45.035Z,3.10
2018-04-26T14:42:38.502Z,2.80
2018-04-26T14:43:38.527Z,3.00
2018-04-26T14:44:38.556Z,2.70
2018-04-26T14:45:38.597Z,2.90
2018-04-26T14:46:38.621Z,2.80
2018-04-26T14:47:38.655Z,3.10
2018-04-26T14:48:38.690Z,2.60
2018-04-26T14:49:38.764Z,2.60
2018-04-26T14:50:38.756Z,2.80
2018-04-26T14:51:38.790Z,2.60
2018-04-26T14:52:38.822Z,3.10
2018-04-26T14:53:39.037Z,2.80
2018-04-26T14:54:38.892Z,2.80
2018-04-26T14:55:38.920Z,2.60
2018-04-26T14:56:38.961Z,2.90
2018-04-26T14:57:38.986Z,2.90
2018-04-26T14:58:39.016Z,2.60
2018-04-26T14:59:39.076Z,2.70
2018-04-26T15:00:39.125Z,2.90
2018-04-26T15:01:39.125Z,2.80
2018-04-26T15:02:39.168Z,2.90
2018-04-26T15:03:39.242Z,2.70
2018-04-26T15:04:39.269Z,2.60
2018-04-26T15:05:39.337Z,3.00
2018-04-26T15:06:39.326Z,3.10
2018-04-26T15:07:39.369Z,2.90
2018-04-26T15:08:39.397Z,3.00
2018-04-26T15:09:39.462Z,2.90
2018-04-26T15:11:32.857Z,2.90
2018-04-26T15:12:32.878Z,3.10
2018-04-26T15:14:26.354Z,3.30
2018-04-26T15:15:26.431Z,3.20
2018-04-26T15:17:19.855Z,3.30
2018-04-26T15:18:19.870Z,3.20
2018-04-26T15:20:13.454Z,3.40
2018-04-26T15:21:13.398Z,3.00
2018-04-26T15:23:06.847Z,3.40
2018-04-26T15:24:06.873Z,3.60
2018-04-26T15:26:00.346Z,3.60
2018-04-26T15:27:00.368Z,4.00
2018-04-26T15:28:53.858Z,3.70
2018-04-26T15:29:53.871Z,3.90
2018-04-26T15:31:47.455Z,4.00
2018-04-26T15:32:47.413Z,4.20
2018-04-26T15:34:40.846Z,4.00
2018-04-26T15:35:40.866Z,3.50
2018-04-26T15:37:34.346Z,3.70
2018-04-26T15:38:34.377Z,3.30
2018-04-26T15:40:27.847Z,3.70
2018-04-26T15:41:27.920Z,3.60
2018-04-26T15:43:21.373Z,3.70
2018-04-26T15:44:21.498Z,3.50
2018-04-26T15:46:14.896Z,3.60
2018-04-26T15:47:14.880Z,3.60
2018-04-26T15:49:08.367Z,3.60
2018-04-26T15:50:08.469Z,3.70
2018-04-26T15:52:02.387Z,3.50
2018-04-26T15:53:01.884Z,3.30
2018-04-26T15:54:55.364Z,4.00
2018-04-26T15:55:55.383Z,3.70
2018-04-26T15:56:55.414Z,3.50
2018-04-26T15:57:55.451Z,3.60
2018-04-26T15:58:55.489Z,3.50
2018-04-26T15:59:55.513Z,3.60
2018-04-26T16:01:49.005Z,3.90
2018-04-26T16:02:49.014Z,3.50
2018-04-26T16:04:42.494Z,3.70
2018-04-26T16:05:42.519Z,3.80
2018-04-26T16:07:35.985Z,3.60
2018-04-26T16:08:36.012Z,3.80
2018-04-26T16:10:29.490Z,4.10
2018-04-26T16:11:29.542Z,3.80
2018-04-26T16:13:22.995Z,4.10
2018-04-26T16:14:23.005Z,3.80
2018-04-26T16:16:16.495Z,3.90
2018-04-26T16:17:16.510Z,4.20
2018-04-26T16:19:10.029Z,4.00